sensor_id;sensor_type;location;lat;lon;timestamp;temperature;humidity
6443;DHT22;3254;47.372;8.512;2023-04-24T00:00:57;9.70;27.80
6443;DHT22;3254;47.372;8.512;2023-04-24T00:03:24;9.40;29.90
6443;DHT22;3254;47.372;8.512;2023-04-24T00:05:50;9.20;52.40
6443;DHT22;3254;47.372;8.512;2023-04-24T00:08:16;9.20;56.70
6443;DHT22;3254;47.372;8.512;2023-04-24T00:10:42;9.20;61.00
6443;DHT22;3254;47.372;8.512;2023-04-24T00:13:07;9.30;49.50
6443;DHT22;3254;47.372;8.512;2023-04-24T00:15:33;9.40;45.70
6443;DHT22;3254;47.372;8.512;2023-04-24T00:17:58;9.50;33.40
6443;DHT22;3254;47.372;8.512;2023-04-24T00:20:26;9.70;26.00
6443;DHT22;3254;47.372;8.512;2023-04-24T00:22:53;9.80;21.00
6443;DHT22;3254;47.372;8.512;2023-04-24T00:25:19;9.70;20.50
6443;DHT22;3254;47.372;8.512;2023-04-24T00:27:44;9.50;24.80
6443;DHT22;3254;47.372;8.512;2023-04-24T00:30:10;9.50;22.90
6443;DHT22;3254;47.372;8.512;2023-04-24T00:32:36;9.50;21.40
6443;DHT22;3254;47.372;8.512;2023-04-24T00:35:01;9.40;22.60
6443;DHT22;3254;47.372;8.512;2023-04-24T00:37:27;9.60;13.30
6443;DHT22;3254;47.372;8.512;2023-04-24T00:39:52;9.60;12.90
6443;DHT22;3254;47.372;8.512;2023-04-24T00:42:18;9.60;10.50
6443;DHT22;3254;47.372;8.512;2023-04-24T00:44:43;9.60;9.10
6443;DHT22;3254;47.372;8.512;2023-04-24T00:47:10;9.60;8.10
6443;DHT22;3254;47.372;8.512;2023-04-24T00:49:37;9.50;8.70
6443;DHT22;3254;47.372;8.512;2023-04-24T00:52:02;9.60;5.40
6443;DHT22;3254;47.372;8.512;2023-04-24T00:54:32;9.60;4.70
6443;DHT22;3254;47.372;8.512;2023-04-24T00:56:58;9.60;3.20
6443;DHT22;3254;47.372;8.512;2023-04-24T00:59:23;9.70;1.00
6443;DHT22;3254;47.372;8.512;2023-04-24T01:01:49;9.60;1.00
6443;DHT22;3254;47.372;8.512;2023-04-24T01:04:16;9.50;1.00
6443;DHT22;3254;47.372;8.512;2023-04-24T01:06:44;9.60;1.00
6443;DHT22;3254;47.372;8.512;2023-04-24T01:09:11;9.70;1.00
6443;DHT22;3254;47.372;8.512;2023-04-24T01:11:37;9.60;1.00
6443;DHT22;3254;47.372;8.512;2023-04-24T01:14:03;9.60;1.00
6443;DHT22;3254;47.372;8.512;2023-04-24T01:16:29;9.70;1.00
6443;DHT22;3254;47.372;8.512;2023-04-24T01:18:55;9.60;1.00
6443;DHT22;3254;47.372;8.512;2023-04-24T01:21:21;9.60;1.00
6443;DHT22;3254;47.372;8.512;2023-04-24T01:23:46;9.60;1.00
6443;DHT22;3254;47.372;8.512;2023-04-24T01:26:14;9.50;1.00
6443;DHT22;3254;47.372;8.512;2023-04-24T01:28:40;9.50;1.00
6443;DHT22;3254;47.372;8.512;2023-04-24T01:31:06;9.60;1.00
6443;DHT22;3254;47.372;8.512;2023-04-24T01:33:32;9.70;1.00
6443;DHT22;3254;47.372;8.512;2023-04-24T01:35:58;9.60;1.00
6443;DHT22;3254;47.372;8.512;2023-04-24T01:38:23;9.60;1.00
6443;DHT22;3254;47.372;8.512;2023-04-24T01:40:50;9.50;1.00
6443;DHT22;3254;47.372;8.512;2023-04-24T01:43:16;9.40;1.00
6443;DHT22;3254;47.372;8.512;2023-04-24T01:45:42;9.40;1.00
6443;DHT22;3254;47.372;8.512;2023-04-24T01:48:07;9.30;1.00
6443;DHT22;3254;47.372;8.512;2023-04-24T01:50:33;9.20;1.00
6443;DHT22;3254;47.372;8.512;2023-04-24T01:52:58;9.30;1.00
6443;DHT22;3254;47.372;8.512;2023-04-24T01:55:24;9.30;1.00
6443;DHT22;3254;47.372;8.512;2023-04-24T01:57:52;9.30;1.00
6443;DHT22;3254;47.372;8.512;2023-04-24T02:00:17;9.40;1.00
6443;DHT22;3254;47.372;8.512;2023-04-24T02:02:43;9.40;1.00
6443;DHT22;3254;47.372;8.512;2023-04-24T02:05:09;9.40;1.00
6443;DHT22;3254;47.372;8.512;2023-04-24T02:07:35;9.50;1.00
6443;DHT22;3254;47.372;8.512;2023-04-24T02:10:00;9.50;1.00
6443;DHT22;3254;47.372;8.512;2023-04-24T02:12:26;9.40;1.00
6443;DHT22;3254;47.372;8.512;2023-04-24T02:14:52;9.30;1.00
6443;DHT22;3254;47.372;8.512;2023-04-24T02:17:17;9.40;1.00
6443;DHT22;3254;47.372;8.512;2023-04-24T02:19:44;9.40;1.00
6443;DHT22;3254;47.372;8.512;2023-04-24T02:22:10;9.40;1.00
6443;DHT22;3254;47.372;8.512;2023-04-24T02:24:36;9.50;1.00
6443;DHT22;3254;47.372;8.512;2023-04-24T02:27:02;9.50;1.00
6443;DHT22;3254;47.372;8.512;2023-04-24T02:29:28;9.30;1.00
6443;DHT22;3254;47.372;8.512;2023-04-24T02:31:53;9.10;1.00
6443;DHT22;3254;47.372;8.512;2023-04-24T02:34:19;9.10;1.00
6443;DHT22;3254;47.372;8.512;2023-04-24T02:36:45;9.00;1.00
6443;DHT22;3254;47.372;8.512;2023-04-24T02:39:10;9.00;1.00
6443;DHT22;3254;47.372;8.512;2023-04-24T02:41:36;9.00;1.00
6443;DHT22;3254;47.372;8.512;2023-04-24T02:44:02;9.00;1.00
6443;DHT22;3254;47.372;8.512;2023-04-24T02:46:27;9.10;1.00
6443;DHT22;3254;47.372;8.512;2023-04-24T02:48:53;9.10;1.00
6443;DHT22;3254;47.372;8.512;2023-04-24T02:51:18;9.20;1.00
6443;DHT22;3254;47.372;8.512;2023-04-24T02:53:44;9.30;1.00
6443;DHT22;3254;47.372;8.512;2023-04-24T02:56:09;9.30;1.00
6443;DHT22;3254;47.372;8.512;2023-04-24T02:58:37;9.30;1.00
6443;DHT22;3254;47.372;8.512;2023-04-24T03:01:03;9.30;1.00
6443;DHT22;3254;47.372;8.512;2023-04-24T03:03:28;9.30;1.00
6443;DHT22;3254;47.372;8.512;2023-04-24T03:05:54;9.30;1.00
6443;DHT22;3254;47.372;8.512;2023-04-24T03:08:20;9.20;1.00
6443;DHT22;3254;47.372;8.512;2023-04-24T03:10:46;9.20;1.00
6443;DHT22;3254;47.372;8.512;2023-04-24T03:13:12;9.10;1.00
6443;DHT22;3254;47.372;8.512;2023-04-24T03:15:38;9.00;1.00
6443;DHT22;3254;47.372;8.512;2023-04-24T03:18:04;8.90;1.00
6443;DHT22;3254;47.372;8.512;2023-04-24T03:20:29;8.90;1.00
6443;DHT22;3254;47.372;8.512;2023-04-24T03:22:55;8.90;1.00
6443;DHT22;3254;47.372;8.512;2023-04-24T03:25:22;8.90;1.00
6443;DHT22;3254;47.372;8.512;2023-04-24T03:27:47;8.90;1.00
6443;DHT22;3254;47.372;8.512;2023-04-24T03:30:13;9.00;1.00
6443;DHT22;3254;47.372;8.512;2023-04-24T03:32:39;9.10;1.00
6443;DHT22;3254;47.372;8.512;2023-04-24T03:35:06;9.20;1.00
6443;DHT22;3254;47.372;8.512;2023-04-24T03:37:32;9.30;1.00
6443;DHT22;3254;47.372;8.512;2023-04-24T03:39:58;9.20;1.00
6443;DHT22;3254;47.372;8.512;2023-04-24T03:42:23;9.10;1.00
6443;DHT22;3254;47.372;8.512;2023-04-24T03:44:49;8.90;1.00
6443;DHT22;3254;47.372;8.512;2023-04-24T03:47:15;9.00;1.00
6443;DHT22;3254;47.372;8.512;2023-04-24T03:49:40;8.90;1.00
6443;DHT22;3254;47.372;8.512;2023-04-24T03:52:06;9.10;1.00
6443;DHT22;3254;47.372;8.512;2023-04-24T03:54:31;9.20;1.00
6443;DHT22;3254;47.372;8.512;2023-04-24T03:56:57;9.20;1.00
6443;DHT22;3254;47.372;8.512;2023-04-24T03:59:22;9.20;1.00
6443;DHT22;3254;47.372;8.512;2023-04-24T04:01:48;9.10;1.00
6443;DHT22;3254;47.372;8.512;2023-04-24T04:04:13;9.00;1.00
6443;DHT22;3254;47.372;8.512;2023-04-24T04:06:39;8.90;1.00
6443;DHT22;3254;47.372;8.512;2023-04-24T04:09:05;8.80;1.00
6443;DHT22;3254;47.372;8.512;2023-04-24T04:11:30;8.80;1.00
6443;DHT22;3254;47.372;8.512;2023-04-24T04:13:56;9.00;1.00
6443;DHT22;3254;47.372;8.512;2023-04-24T04:16:22;9.00;1.00
6443;DHT22;3254;47.372;8.512;2023-04-24T04:18:48;9.10;1.00
6443;DHT22;3254;47.372;8.512;2023-04-24T04:21:13;9.20;1.00
6443;DHT22;3254;47.372;8.512;2023-04-24T04:23:39;9.20;1.00
6443;DHT22;3254;47.372;8.512;2023-04-24T04:26:05;9.10;1.00
6443;DHT22;3254;47.372;8.512;2023-04-24T04:28:31;9.10;1.00
6443;DHT22;3254;47.372;8.512;2023-04-24T04:30:57;9.00;1.00
6443;DHT22;3254;47.372;8.512;2023-04-24T04:33:26;9.10;1.00
6443;DHT22;3254;47.372;8.512;2023-04-24T04:35:52;9.00;1.00
6443;DHT22;3254;47.372;8.512;2023-04-24T04:38:20;9.10;1.00
6443;DHT22;3254;47.372;8.512;2023-04-24T04:40:46;9.10;1.00
6443;DHT22;3254;47.372;8.512;2023-04-24T04:43:12;9.10;1.00
6443;DHT22;3254;47.372;8.512;2023-04-24T04:45:38;9.00;1.00
6443;DHT22;3254;47.372;8.512;2023-04-24T04:48:05;9.10;1.00
6443;DHT22;3254;47.372;8.512;2023-04-24T04:50:33;9.00;1.00
6443;DHT22;3254;47.372;8.512;2023-04-24T04:52:59;9.10;1.00
6443;DHT22;3254;47.372;8.512;2023-04-24T04:55:24;9.00;1.00
6443;DHT22;3254;47.372;8.512;2023-04-24T04:57:51;8.80;1.00
6443;DHT22;3254;47.372;8.512;2023-04-24T05:00:17;8.70;1.00
6443;DHT22;3254;47.372;8.512;2023-04-24T05:02:42;8.50;3.30
6443;DHT22;3254;47.372;8.512;2023-04-24T05:05:08;8.20;13.70
6443;DHT22;3254;47.372;8.512;2023-04-24T05:07:34;8.00;41.10
6443;DHT22;3254;47.372;8.512;2023-04-24T05:10:00;7.80;82.20
6443;DHT22;3254;47.372;8.512;2023-04-24T05:12:25;7.70;99.90
6443;DHT22;3254;47.372;8.512;2023-04-24T05:14:51;7.70;99.90
6443;DHT22;3254;47.372;8.512;2023-04-24T05:17:17;7.60;99.90
6443;DHT22;3254;47.372;8.512;2023-04-24T05:19:43;7.60;99.90
6443;DHT22;3254;47.372;8.512;2023-04-24T05:22:09;7.60;99.90
6443;DHT22;3254;47.372;8.512;2023-04-24T05:24:35;7.70;99.90
6443;DHT22;3254;47.372;8.512;2023-04-24T05:27:02;7.70;99.90
6443;DHT22;3254;47.372;8.512;2023-04-24T05:29:29;7.70;99.90
6443;DHT22;3254;47.372;8.512;2023-04-24T05:31:56;7.70;99.90
6443;DHT22;3254;47.372;8.512;2023-04-24T05:34:22;7.70;99.90
6443;DHT22;3254;47.372;8.512;2023-04-24T05:36:48;7.80;99.90
6443;DHT22;3254;47.372;8.512;2023-04-24T05:39:14;7.80;99.90
6443;DHT22;3254;47.372;8.512;2023-04-24T05:41:40;7.80;99.90
6443;DHT22;3254;47.372;8.512;2023-04-24T05:44:06;7.80;99.90
6443;DHT22;3254;47.372;8.512;2023-04-24T05:46:31;7.90;99.90
6443;DHT22;3254;47.372;8.512;2023-04-24T05:48:57;7.80;99.90
6443;DHT22;3254;47.372;8.512;2023-04-24T05:51:23;7.70;99.90
6443;DHT22;3254;47.372;8.512;2023-04-24T05:53:49;7.70;99.90
6443;DHT22;3254;47.372;8.512;2023-04-24T05:56:15;7.80;99.90
6443;DHT22;3254;47.372;8.512;2023-04-24T05:58:41;7.80;99.90
6443;DHT22;3254;47.372;8.512;2023-04-24T06:01:07;7.90;99.90
6443;DHT22;3254;47.372;8.512;2023-04-24T06:03:32;8.00;99.90
6443;DHT22;3254;47.372;8.512;2023-04-24T06:05:58;8.00;99.90
6443;DHT22;3254;47.372;8.512;2023-04-24T06:08:24;8.00;99.90
6443;DHT22;3254;47.372;8.512;2023-04-24T06:10:49;8.20;99.90
6443;DHT22;3254;47.372;8.512;2023-04-24T06:13:15;8.30;99.90
6443;DHT22;3254;47.372;8.512;2023-04-24T06:15:41;8.40;99.90
6443;DHT22;3254;47.372;8.512;2023-04-24T06:18:07;8.50;99.90
6443;DHT22;3254;47.372;8.512;2023-04-24T06:20:33;8.50;99.90
6443;DHT22;3254;47.372;8.512;2023-04-24T06:22:58;8.60;99.90
6443;DHT22;3254;47.372;8.512;2023-04-24T06:25:25;8.70;99.90
6443;DHT22;3254;47.372;8.512;2023-04-24T06:27:52;8.80;97.50
6443;DHT22;3254;47.372;8.512;2023-04-24T06:30:17;8.80;99.90
6443;DHT22;3254;47.372;8.512;2023-04-24T06:32:43;9.00;99.90
6443;DHT22;3254;47.372;8.512;2023-04-24T06:35:08;9.20;94.20
6443;DHT22;3254;47.372;8.512;2023-04-24T06:37:35;9.30;82.50
6443;DHT22;3254;47.372;8.512;2023-04-24T06:40:01;9.40;72.80
6443;DHT22;3254;47.372;8.512;2023-04-24T06:42:26;9.30;73.70
6443;DHT22;3254;47.372;8.512;2023-04-24T06:44:52;9.30;68.70
6443;DHT22;3254;47.372;8.512;2023-04-24T06:47:17;9.40;64.70
6443;DHT22;3254;47.372;8.512;2023-04-24T06:49:43;9.40;61.30
6443;DHT22;3254;47.372;8.512;2023-04-24T06:52:09;9.50;51.90
6443;DHT22;3254;47.372;8.512;2023-04-24T06:54:35;9.60;49.00
6443;DHT22;3254;47.372;8.512;2023-04-24T06:57:00;9.60;49.00
6443;DHT22;3254;47.372;8.512;2023-04-24T06:59:26;9.70;39.70
6443;DHT22;3254;47.372;8.512;2023-04-24T07:01:52;9.80;31.20
6443;DHT22;3254;47.372;8.512;2023-04-24T07:04:18;9.90;28.00
6443;DHT22;3254;47.372;8.512;2023-04-24T07:06:47;9.90;21.40
6443;DHT22;3254;47.372;8.512;2023-04-24T07:09:13;10.00;22.70
6443;DHT22;3254;47.372;8.512;2023-04-24T07:11:44;10.20;18.70
6443;DHT22;3254;47.372;8.512;2023-04-24T07:14:10;10.40;13.30
6443;DHT22;3254;47.372;8.512;2023-04-24T07:16:35;10.80;9.30
6443;DHT22;3254;47.372;8.512;2023-04-24T07:19:01;11.10;8.60
6443;DHT22;3254;47.372;8.512;2023-04-24T07:21:26;11.50;1.00
6443;DHT22;3254;47.372;8.512;2023-04-24T07:23:52;11.40;1.00
6443;DHT22;3254;47.372;8.512;2023-04-24T07:26:18;11.30;1.00
6443;DHT22;3254;47.372;8.512;2023-04-24T07:28:43;11.10;1.00
6443;DHT22;3254;47.372;8.512;2023-04-24T07:31:11;11.50;1.00
6443;DHT22;3254;47.372;8.512;2023-04-24T07:33:37;11.80;1.00
6443;DHT22;3254;47.372;8.512;2023-04-24T07:36:03;12.20;1.00
6443;DHT22;3254;47.372;8.512;2023-04-24T07:38:30;12.40;1.00
6443;DHT22;3254;47.372;8.512;2023-04-24T07:40:55;12.80;1.00
6443;DHT22;3254;47.372;8.512;2023-04-24T07:43:21;13.40;1.00
6443;DHT22;3254;47.372;8.512;2023-04-24T07:45:47;13.60;1.00
6443;DHT22;3254;47.372;8.512;2023-04-24T07:48:13;13.50;1.00
6443;DHT22;3254;47.372;8.512;2023-04-24T07:50:42;13.60;1.00
6443;DHT22;3254;47.372;8.512;2023-04-24T07:53:07;14.40;1.00
6443;DHT22;3254;47.372;8.512;2023-04-24T07:55:33;15.10;1.00
6443;DHT22;3254;47.372;8.512;2023-04-24T07:57:58;15.20;1.00
6443;DHT22;3254;47.372;8.512;2023-04-24T08:00:24;15.80;1.00
6443;DHT22;3254;47.372;8.512;2023-04-24T08:02:49;14.80;1.00
6443;DHT22;3254;47.372;8.512;2023-04-24T08:05:15;13.80;1.00
6443;DHT22;3254;47.372;8.512;2023-04-24T08:07:41;12.10;1.00
6443;DHT22;3254;47.372;8.512;2023-04-24T08:10:09;10.80;1.00
6443;DHT22;3254;47.372;8.512;2023-04-24T08:12:35;9.70;1.00
6443;DHT22;3254;47.372;8.512;2023-04-24T08:15:01;8.70;1.00
6443;DHT22;3254;47.372;8.512;2023-04-24T08:17:26;8.00;18.70
6443;DHT22;3254;47.372;8.512;2023-04-24T08:19:52;7.60;29.60
6443;DHT22;3254;47.372;8.512;2023-04-24T08:22:24;7.60;40.70
6443;DHT22;3254;47.372;8.512;2023-04-24T08:24:50;7.70;39.60
6443;DHT22;3254;47.372;8.512;2023-04-24T08:27:15;7.70;34.50
6443;DHT22;3254;47.372;8.512;2023-04-24T08:29:41;7.90;36.80
6443;DHT22;3254;47.372;8.512;2023-04-24T08:32:06;7.90;37.60
6443;DHT22;3254;47.372;8.512;2023-04-24T08:34:32;8.00;36.10
6443;DHT22;3254;47.372;8.512;2023-04-24T08:36:58;8.20;38.20
6443;DHT22;3254;47.372;8.512;2023-04-24T08:39:23;8.30;25.40
6443;DHT22;3254;47.372;8.512;2023-04-24T08:41:49;8.40;31.10
6443;DHT22;3254;47.372;8.512;2023-04-24T08:44:16;8.30;38.50
6443;DHT22;3254;47.372;8.512;2023-04-24T08:46:43;8.30;87.50
6443;DHT22;3254;47.372;8.512;2023-04-24T08:49:12;8.60;94.20
6443;DHT22;3254;47.372;8.512;2023-04-24T08:51:39;9.40;91.80
6443;DHT22;3254;47.372;8.512;2023-04-24T08:54:05;9.70;68.20
6443;DHT22;3254;47.372;8.512;2023-04-24T08:56:33;10.30;55.20
6443;DHT22;3254;47.372;8.512;2023-04-24T08:58:59;11.00;25.50
6443;DHT22;3254;47.372;8.512;2023-04-24T09:01:25;12.00;26.40
6443;DHT22;3254;47.372;8.512;2023-04-24T09:03:53;12.70;7.70
6443;DHT22;3254;47.372;8.512;2023-04-24T09:06:21;12.40;1.00
6443;DHT22;3254;47.372;8.512;2023-04-24T09:08:49;12.30;1.00
6443;DHT22;3254;47.372;8.512;2023-04-24T09:11:16;12.60;1.00
6443;DHT22;3254;47.372;8.512;2023-04-24T09:13:43;12.80;1.00
6443;DHT22;3254;47.372;8.512;2023-04-24T09:16:08;13.70;1.00
6443;DHT22;3254;47.372;8.512;2023-04-24T09:18:34;14.70;1.00
6443;DHT22;3254;47.372;8.512;2023-04-24T09:21:21;15.40;1.00
6443;DHT22;3254;47.372;8.512;2023-04-24T09:23:47;14.90;1.00
6443;DHT22;3254;47.372;8.512;2023-04-24T09:26:22;14.40;1.00
6443;DHT22;3254;47.372;8.512;2023-04-24T09:28:48;13.70;1.00
6443;DHT22;3254;47.372;8.512;2023-04-24T09:31:15;13.30;1.00
6443;DHT22;3254;47.372;8.512;2023-04-24T09:33:59;13.20;1.00
6443;DHT22;3254;47.372;8.512;2023-04-24T09:36:30;13.10;1.00
6443;DHT22;3254;47.372;8.512;2023-04-24T09:38:59;12.70;1.00
6443;DHT22;3254;47.372;8.512;2023-04-24T09:41:25;12.50;1.00
6443;DHT22;3254;47.372;8.512;2023-04-24T09:43:53;12.20;1.00
6443;DHT22;3254;47.372;8.512;2023-04-24T09:46:20;11.90;1.00
6443;DHT22;3254;47.372;8.512;2023-04-24T09:48:47;11.70;1.00
6443;DHT22;3254;47.372;8.512;2023-04-24T09:51:12;12.00;1.00
6443;DHT22;3254;47.372;8.512;2023-04-24T09:53:38;13.30;1.00
6443;DHT22;3254;47.372;8.512;2023-04-24T09:56:10;14.30;1.00
6443;DHT22;3254;47.372;8.512;2023-04-24T09:58:37;15.20;1.00
6443;DHT22;3254;47.372;8.512;2023-04-24T10:01:03;16.10;1.00
6443;DHT22;3254;47.372;8.512;2023-04-24T10:03:30;16.10;1.00
6443;DHT22;3254;47.372;8.512;2023-04-24T10:05:59;16.80;1.00
6443;DHT22;3254;47.372;8.512;2023-04-24T10:08:25;16.70;1.00
6443;DHT22;3254;47.372;8.512;2023-04-24T10:10:52;16.40;1.00
6443;DHT22;3254;47.372;8.512;2023-04-24T10:13:18;16.10;1.00
6443;DHT22;3254;47.372;8.512;2023-04-24T10:15:44;15.90;1.00
6443;DHT22;3254;47.372;8.512;2023-04-24T10:18:10;15.40;1.00
6443;DHT22;3254;47.372;8.512;2023-04-24T10:20:38;16.60;1.00
6443;DHT22;3254;47.372;8.512;2023-04-24T10:23:04;17.80;1.00
6443;DHT22;3254;47.372;8.512;2023-04-24T10:25:31;16.50;1.00
6443;DHT22;3254;47.372;8.512;2023-04-24T10:27:59;15.80;1.00
6443;DHT22;3254;47.372;8.512;2023-04-24T10:30:27;16.60;1.00
6443;DHT22;3254;47.372;8.512;2023-04-24T10:32:52;17.90;1.00
6443;DHT22;3254;47.372;8.512;2023-04-24T10:35:18;17.20;1.00
6443;DHT22;3254;47.372;8.512;2023-04-24T10:37:50;16.20;1.00
6443;DHT22;3254;47.372;8.512;2023-04-24T10:40:18;16.20;1.00
6443;DHT22;3254;47.372;8.512;2023-04-24T10:42:47;15.60;1.00
6443;DHT22;3254;47.372;8.512;2023-04-24T10:45:21;15.30;1.00
6443;DHT22;3254;47.372;8.512;2023-04-24T10:47:58;15.40;1.00
6443;DHT22;3254;47.372;8.512;2023-04-24T10:50:26;16.30;1.00
6443;DHT22;3254;47.372;8.512;2023-04-24T10:52:52;16.50;1.00
6443;DHT22;3254;47.372;8.512;2023-04-24T10:58:08;16.30;1.00
6443;DHT22;3254;47.372;8.512;2023-04-24T11:00:36;16.00;1.00
6443;DHT22;3254;47.372;8.512;2023-04-24T11:08:32;14.80;1.00
6443;DHT22;3254;47.372;8.512;2023-04-24T11:11:15;14.40;1.00
6443;DHT22;3254;47.372;8.512;2023-04-24T11:22:03;13.60;1.00
6443;DHT22;3254;47.372;8.512;2023-04-24T11:24:30;13.70;1.00
6443;DHT22;3254;47.372;8.512;2023-04-24T11:26:59;14.10;1.00
6443;DHT22;3254;47.372;8.512;2023-04-24T11:29:48;14.90;1.00
6443;DHT22;3254;47.372;8.512;2023-04-24T11:32:29;16.20;1.00
6443;DHT22;3254;47.372;8.512;2023-04-24T11:37:22;15.50;1.00
6443;DHT22;3254;47.372;8.512;2023-04-24T11:39:51;15.10;1.00
6443;DHT22;3254;47.372;8.512;2023-04-24T11:42:17;15.40;1.00
6443;DHT22;3254;47.372;8.512;2023-04-24T11:44:43;15.60;1.00
6443;DHT22;3254;47.372;8.512;2023-04-24T11:47:09;15.40;1.00
6443;DHT22;3254;47.372;8.512;2023-04-24T11:49:38;15.00;1.00
6443;DHT22;3254;47.372;8.512;2023-04-24T11:52:04;14.80;1.00
6443;DHT22;3254;47.372;8.512;2023-04-24T11:54:30;14.60;1.00
6443;DHT22;3254;47.372;8.512;2023-04-24T11:56:56;14.90;1.00
6443;DHT22;3254;47.372;8.512;2023-04-24T11:59:22;15.50;1.00
6443;DHT22;3254;47.372;8.512;2023-04-24T12:01:48;17.20;1.00
6443;DHT22;3254;47.372;8.512;2023-04-24T12:04:16;18.90;1.00
6443;DHT22;3254;47.372;8.512;2023-04-24T12:06:59;19.20;1.00
6443;DHT22;3254;47.372;8.512;2023-04-24T12:09:25;18.50;1.00
6443;DHT22;3254;47.372;8.512;2023-04-24T12:11:57;18.20;1.00
6443;DHT22;3254;47.372;8.512;2023-04-24T12:14:23;16.80;1.00
6443;DHT22;3254;47.372;8.512;2023-04-24T12:16:50;15.90;1.00
6443;DHT22;3254;47.372;8.512;2023-04-24T12:19:22;16.30;1.00
6443;DHT22;3254;47.372;8.512;2023-04-24T12:22:02;18.00;1.00
6443;DHT22;3254;47.372;8.512;2023-04-24T12:24:29;19.40;1.00
6443;DHT22;3254;47.372;8.512;2023-04-24T12:26:55;18.90;1.00
6443;DHT22;3254;47.372;8.512;2023-04-24T12:29:22;17.90;1.00
6443;DHT22;3254;47.372;8.512;2023-04-24T12:31:48;16.20;1.00
6443;DHT22;3254;47.372;8.512;2023-04-24T12:34:32;14.90;1.00
6443;DHT22;3254;47.372;8.512;2023-04-24T12:37:10;13.30;1.00
6443;DHT22;3254;47.372;8.512;2023-04-24T12:39:35;12.90;1.00
6443;DHT22;3254;47.372;8.512;2023-04-24T12:42:01;14.00;1.00
6443;DHT22;3254;47.372;8.512;2023-04-24T12:44:33;14.30;1.00
6443;DHT22;3254;47.372;8.512;2023-04-24T12:47:00;14.00;1.00
6443;DHT22;3254;47.372;8.512;2023-04-24T12:49:26;14.40;1.00
6443;DHT22;3254;47.372;8.512;2023-04-24T12:51:52;16.00;1.00
6443;DHT22;3254;47.372;8.512;2023-04-24T12:54:18;17.60;1.00
6443;DHT22;3254;47.372;8.512;2023-04-24T12:56:43;18.70;1.00
6443;DHT22;3254;47.372;8.512;2023-04-24T12:59:09;19.30;1.00
6443;DHT22;3254;47.372;8.512;2023-04-24T13:01:35;18.80;1.00
6443;DHT22;3254;47.372;8.512;2023-04-24T13:04:00;19.20;1.00
6443;DHT22;3254;47.372;8.512;2023-04-24T13:06:26;19.50;1.00
6443;DHT22;3254;47.372;8.512;2023-04-24T13:08:52;20.30;1.00
6443;DHT22;3254;47.372;8.512;2023-04-24T13:11:17;19.80;1.00
6443;DHT22;3254;47.372;8.512;2023-04-24T13:13:43;18.70;1.00
6443;DHT22;3254;47.372;8.512;2023-04-24T13:16:09;18.10;1.00
6443;DHT22;3254;47.372;8.512;2023-04-24T13:18:34;18.10;1.00
6443;DHT22;3254;47.372;8.512;2023-04-24T13:21:00;18.30;1.00
6443;DHT22;3254;47.372;8.512;2023-04-24T13:23:26;17.90;1.00
6443;DHT22;3254;47.372;8.512;2023-04-24T13:25:51;18.00;1.00
6443;DHT22;3254;47.372;8.512;2023-04-24T13:28:17;18.30;1.00
6443;DHT22;3254;47.372;8.512;2023-04-24T13:30:43;18.70;1.00
6443;DHT22;3254;47.372;8.512;2023-04-24T13:33:09;20.00;1.00
6443;DHT22;3254;47.372;8.512;2023-04-24T13:35:34;20.40;1.00
6443;DHT22;3254;47.372;8.512;2023-04-24T13:38:00;19.80;1.00
6443;DHT22;3254;47.372;8.512;2023-04-24T13:40:26;19.00;1.00
6443;DHT22;3254;47.372;8.512;2023-04-24T13:42:52;18.70;1.00
6443;DHT22;3254;47.372;8.512;2023-04-24T13:45:18;17.80;1.00
6443;DHT22;3254;47.372;8.512;2023-04-24T13:47:43;17.20;1.00
6443;DHT22;3254;47.372;8.512;2023-04-24T13:50:09;16.80;1.00
6443;DHT22;3254;47.372;8.512;2023-04-24T13:52:35;16.20;1.00
6443;DHT22;3254;47.372;8.512;2023-04-24T13:55:01;15.80;1.00
6443;DHT22;3254;47.372;8.512;2023-04-24T13:57:26;15.60;1.00
6443;DHT22;3254;47.372;8.512;2023-04-24T13:59:53;15.50;1.00
6443;DHT22;3254;47.372;8.512;2023-04-24T14:02:21;15.30;1.00
6443;DHT22;3254;47.372;8.512;2023-04-24T14:04:46;15.00;1.00
6443;DHT22;3254;47.372;8.512;2023-04-24T14:07:13;15.00;1.00
6443;DHT22;3254;47.372;8.512;2023-04-24T14:09:39;15.10;1.00
6443;DHT22;3254;47.372;8.512;2023-04-24T14:12:04;14.80;1.00
6443;DHT22;3254;47.372;8.512;2023-04-24T14:14:31;14.10;1.00
6443;DHT22;3254;47.372;8.512;2023-04-24T14:16:57;12.60;1.00
6443;DHT22;3254;47.372;8.512;2023-04-24T14:19:22;10.90;1.00
6443;DHT22;3254;47.372;8.512;2023-04-24T14:21:48;10.50;1.70
6443;DHT22;3254;47.372;8.512;2023-04-24T14:24:13;10.40;1.00
6443;DHT22;3254;47.372;8.512;2023-04-24T14:26:39;10.70;2.20
6443;DHT22;3254;47.372;8.512;2023-04-24T14:29:04;11.10;1.00
6443;DHT22;3254;47.372;8.512;2023-04-24T14:31:30;11.40;1.00
6443;DHT22;3254;47.372;8.512;2023-04-24T14:33:56;11.60;1.00
6443;DHT22;3254;47.372;8.512;2023-04-24T14:36:21;12.00;1.00
6443;DHT22;3254;47.372;8.512;2023-04-24T14:38:47;13.20;1.00
6443;DHT22;3254;47.372;8.512;2023-04-24T14:41:12;15.00;1.00
6443;DHT22;3254;47.372;8.512;2023-04-24T14:43:38;16.70;1.00
6443;DHT22;3254;47.372;8.512;2023-04-24T14:46:04;18.10;1.00
6443;DHT22;3254;47.372;8.512;2023-04-24T14:48:30;18.90;1.00
6443;DHT22;3254;47.372;8.512;2023-04-24T14:50:55;19.80;1.00
6443;DHT22;3254;47.372;8.512;2023-04-24T14:53:21;20.20;1.00
6443;DHT22;3254;47.372;8.512;2023-04-24T14:55:47;20.10;1.00
6443;DHT22;3254;47.372;8.512;2023-04-24T14:58:12;19.30;1.00
6443;DHT22;3254;47.372;8.512;2023-04-24T15:00:38;18.20;1.00
6443;DHT22;3254;47.372;8.512;2023-04-24T15:03:03;18.90;1.00
6443;DHT22;3254;47.372;8.512;2023-04-24T15:05:29;19.60;1.00
6443;DHT22;3254;47.372;8.512;2023-04-24T15:07:55;20.00;1.00
6443;DHT22;3254;47.372;8.512;2023-04-24T15:10:21;20.20;1.00
6443;DHT22;3254;47.372;8.512;2023-04-24T15:12:48;20.00;1.00
6443;DHT22;3254;47.372;8.512;2023-04-24T15:15:14;21.00;1.00
6443;DHT22;3254;47.372;8.512;2023-04-24T15:17:39;20.90;1.00
6443;DHT22;3254;47.372;8.512;2023-04-24T15:20:05;20.90;1.00
6443;DHT22;3254;47.372;8.512;2023-04-24T15:22:32;20.60;1.00
6443;DHT22;3254;47.372;8.512;2023-04-24T15:24:57;21.00;1.00
6443;DHT22;3254;47.372;8.512;2023-04-24T15:27:23;21.60;1.00
6443;DHT22;3254;47.372;8.512;2023-04-24T15:29:49;21.30;1.00
6443;DHT22;3254;47.372;8.512;2023-04-24T15:32:15;20.20;1.00
6443;DHT22;3254;47.372;8.512;2023-04-24T15:34:40;19.10;1.00
6443;DHT22;3254;47.372;8.512;2023-04-24T15:37:06;18.70;1.00
6443;DHT22;3254;47.372;8.512;2023-04-24T15:39:32;18.00;1.00
6443;DHT22;3254;47.372;8.512;2023-04-24T15:41:59;17.20;1.00
6443;DHT22;3254;47.372;8.512;2023-04-24T15:44:25;16.30;1.00
6443;DHT22;3254;47.372;8.512;2023-04-24T15:46:51;16.00;1.00
6443;DHT22;3254;47.372;8.512;2023-04-24T15:49:17;15.70;1.00
6443;DHT22;3254;47.372;8.512;2023-04-24T15:51:43;15.50;1.00
6443;DHT22;3254;47.372;8.512;2023-04-24T15:54:08;15.50;1.00
6443;DHT22;3254;47.372;8.512;2023-04-24T15:56:34;15.60;1.00
6443;DHT22;3254;47.372;8.512;2023-04-24T15:59:01;15.60;1.00
6443;DHT22;3254;47.372;8.512;2023-04-24T16:01:29;15.30;1.00
6443;DHT22;3254;47.372;8.512;2023-04-24T16:03:55;15.00;1.00
6443;DHT22;3254;47.372;8.512;2023-04-24T16:06:21;14.50;1.00
6443;DHT22;3254;47.372;8.512;2023-04-24T16:08:46;14.20;1.00
6443;DHT22;3254;47.372;8.512;2023-04-24T16:11:12;14.00;1.00
6443;DHT22;3254;47.372;8.512;2023-04-24T16:13:37;13.50;1.00
6443;DHT22;3254;47.372;8.512;2023-04-24T16:16:03;13.30;1.00
6443;DHT22;3254;47.372;8.512;2023-04-24T16:18:29;13.00;1.00
6443;DHT22;3254;47.372;8.512;2023-04-24T16:20:55;13.00;1.00
6443;DHT22;3254;47.372;8.512;2023-04-24T16:23:21;13.30;1.00
6443;DHT22;3254;47.372;8.512;2023-04-24T16:25:47;13.80;1.00
6443;DHT22;3254;47.372;8.512;2023-04-24T16:28:12;15.00;1.00
6443;DHT22;3254;47.372;8.512;2023-04-24T16:30:42;15.20;1.00
6443;DHT22;3254;47.372;8.512;2023-04-24T16:33:08;16.40;1.00
6443;DHT22;3254;47.372;8.512;2023-04-24T16:35:36;17.40;1.00